Time;durP1;ratioP1;P1;durP2;ratioP2;P2;SDS_P1;SDS_P2;PMS_P1;PMS_P2;Temp;Humidity;BMP_temperature;BMP_pressure;BME280_temperature;BME280_humidity;BME280_pressure;Samples;Min_cycle;Max_cycle;Signal;HPM_P1;HPM_P2
2023/02/04 00:00:44;;;;;;;43.85;33.42;;;;;;;-2.10;100.00;97284.44;5089129;28;20016;-70
2023/02/04 00:03:10;;;;;;;56.47;35.13;;;;;;;-2.13;100.00;97276.72;5094933;28;20035;-68
2023/02/04 00:05:36;;;;;;;46.38;31.27;;;;;;;-2.16;100.00;97281.94;5088114;28;20922;-60
2023/02/04 00:08:01;;;;;;;48.03;32.17;;;;;;;-2.18;100.00;97278.53;5088444;28;20081;-68
2023/02/04 00:10:27;;;;;;;56.55;33.88;;;;;;;-2.20;100.00;97269.97;5083683;28;20020;-68
2023/02/04 00:12:52;;;;;;;43.42;32.72;;;;;;;-2.23;100.00;97277.75;5082308;28;20032;-68
2023/02/04 00:15:17;;;;;;;50.90;34.20;;;;;;;-2.24;100.00;97273.47;5085557;28;20046;-68
2023/02/04 00:17:43;;;;;;;49.40;33.85;;;;;;;-2.25;100.00;97266.63;5087240;28;20024;-68
2023/02/04 00:20:08;;;;;;;51.55;33.85;;;;;;;-2.26;100.00;97264.91;5086161;28;20028;-68
2023/02/04 00:22:34;;;;;;;48.67;33.20;;;;;;;-2.27;100.00;97258.06;5085917;28;20020;-61
2023/02/04 00:24:59;;;;;;;54.00;34.40;;;;;;;-2.27;100.00;97251.16;5066982;28;20601;-68
2023/02/04 00:27:26;;;;;;;49.30;33.63;;;;;;;-2.28;100.00;97256.34;5086749;28;20031;-62
2023/02/04 00:29:52;;;;;;;49.88;29.85;;;;;;;-2.32;100.00;97243.50;5068427;28;20036;-62
2023/02/04 00:32:20;;;;;;;40.55;28.65;;;;;;;-2.27;100.00;97240.81;5067781;28;20062;-63
2023/02/04 00:34:46;;;;;;;47.92;31.90;;;;;;;-2.28;100.00;97239.13;5085879;28;20028;-61
2023/02/04 00:37:12;;;;;;;41.72;28.40;;;;;;;-2.33;100.00;97231.44;5065747;28;20058;-61
2023/02/04 00:39:39;;;;;;;37.25;25.58;;;;;;;-2.37;100.00;97241.88;5066522;28;20032;-62
2023/02/04 00:42:05;;;;;;;36.10;25.90;;;;;;;-2.40;100.00;97237.59;5084611;28;20551;-62
2023/02/04 00:44:30;;;;;;;40.13;29.75;;;;;;;-2.39;100.00;97228.97;5086334;28;20062;-69
2023/02/04 00:46:56;;;;;;;48.65;33.17;;;;;;;-2.39;100.00;97228.97;5089616;28;21301;-69
2023/02/04 00:49:21;;;;;;;38.15;28.85;;;;;;;-2.39;100.00;97228.97;5083175;28;20023;-69
2023/02/04 00:51:47;;;;;;;36.25;26.95;;;;;;;-2.42;100.00;97233.34;5085155;28;20118;-69
2023/02/04 00:54:16;;;;;;;32.17;22.05;;;;;;;-2.42;100.00;97229.03;5087018;28;20059;-69
2023/02/04 00:56:42;;;;;;;25.25;19.45;;;;;;;-2.43;100.00;97235.06;5084975;28;20038;-68
2023/02/04 00:59:07;;;;;;;29.10;19.27;;;;;;;-2.42;100.00;97231.59;5085432;28;20032;-68
2023/02/04 01:01:33;;;;;;;26.02;18.27;;;;;;;-2.41;100.00;97230.72;5085387;28;20058;-62
2023/02/04 01:03:59;;;;;;;25.63;18.90;;;;;;;-2.42;100.00;97229.03;5067788;28;20166;-68
2023/02/04 01:06:24;;;;;;;23.73;19.05;;;;;;;-2.50;100.00;97226.56;5083663;28;20028;-68
2023/02/04 01:08:50;;;;;;;26.55;21.23;;;;;;;-2.53;100.00;97226.63;5086841;28;20492;-68
2023/02/04 01:11:15;;;;;;;32.80;23.35;;;;;;;-2.55;100.00;97228.38;5082035;28;20085;-68
2023/02/04 01:13:41;;;;;;;26.13;20.95;;;;;;;-2.61;100.00;97229.31;5083273;28;20030;-68
2023/02/04 01:16:07;;;;;;;25.63;19.48;;;;;;;-2.64;100.00;97224.19;5064688;28;20024;-69
2023/02/04 01:18:32;;;;;;;21.13;18.92;;;;;;;-2.66;100.00;97228.53;5085026;28;20471;-68
2023/02/04 01:20:57;;;;;;;23.60;18.58;;;;;;;-2.63;100.00;97223.31;5077800;28;20119;-60
2023/02/04 01:23:22;;;;;;;21.90;18.05;;;;;;;-2.59;100.00;97227.56;5082791;28;20024;-60
2023/02/04 01:25:48;;;;;;;22.23;16.25;;;;;;;-2.59;100.00;97227.56;5079021;28;20025;-60
2023/02/04 01:28:13;;;;;;;17.83;14.93;;;;;;;-2.61;100.00;97233.63;5075151;28;20028;-61
2023/02/04 01:30:39;;;;;;;18.17;15.25;;;;;;;-2.63;100.00;97241.38;5076724;28;20020;-60
2023/02/04 01:33:04;;;;;;;17.67;15.38;;;;;;;-2.59;100.00;97231.88;5075369;28;20062;-60
2023/02/04 01:35:29;;;;;;;19.20;15.73;;;;;;;-2.56;100.00;97231.81;5086264;28;20027;-61
2023/02/04 01:37:55;;;;;;;19.48;15.55;;;;;;;-2.56;100.00;97241.28;5084269;28;20112;-60
2023/02/04 01:40:20;;;;;;;18.05;15.20;;;;;;;-2.60;100.00;97235.34;5079644;28;20085;-68
2023/02/04 01:42:45;;;;;;;18.40;15.27;;;;;;;-2.66;100.00;97228.53;5077833;28;20044;-65
2023/02/04 01:45:11;;;;;;;18.10;14.63;;;;;;;-2.69;100.00;97220.84;5082475;28;20036;-66
2023/02/04 01:47:38;;;;;;;16.33;14.30;;;;;;;-2.68;100.00;97229.41;5080525;28;20063;-65
2023/02/04 01:50:03;;;;;;;18.35;15.02;;;;;;;-2.69;100.00;97231.16;5080863;28;20379;-65
2023/02/04 01:52:35;;;;;;;17.85;14.40;;;;;;;-2.72;100.00;97225.19;5082987;28;20031;-65
2023/02/04 01:55:01;;;;;;;18.05;14.20;;;;;;;-2.74;100.00;97220.06;5078858;28;20533;-66
2023/02/04 01:57:27;;;;;;;16.95;14.02;;;;;;;-2.76;100.00;97217.50;5078334;28;20020;-65
2023/02/04 01:59:55;;;;;;;20.10;15.02;;;;;;;-2.75;100.00;97216.63;5079894;28;20048;-62
2023/02/04 02:02:41;;;;;;;18.00;14.23;;;;;;;-2.75;100.00;97213.22;5068409;28;20517;-68
2023/02/04 02:05:11;;;;;;;15.52;13.70;;;;;;;-2.80;100.00;97202.97;5082908;28;20130;-68
2023/02/04 02:07:36;;;;;;;20.33;13.32;;;;;;;-2.83;100.00;97202.13;5083467;28;20580;-68
2023/02/04 02:10:04;;;;;;;16.77;13.55;;;;;;;-2.85;100.00;97201.31;5085782;28;20066;-69
2023/02/04 02:12:30;;;;;;;16.98;13.52;;;;;;;-2.88;100.00;97203.06;5077832;28;20025;-69
2023/02/04 02:14:56;;;;;;;18.38;13.77;;;;;;;-2.88;100.00;97204.78;5078635;28;20120;-69
2023/02/04 02:17:22;;;;;;;17.08;13.88;;;;;;;-2.92;100.00;97198.84;5065414;28;20034;-62
2023/02/04 02:19:48;;;;;;;19.13;14.63;;;;;;;-2.90;100.00;97202.25;5055392;28;20028;-63
2023/02/04 02:22:29;;;;;;;20.02;13.82;;;;;;;-2.90;100.00;97179.03;5083928;28;20571;-69
2023/02/04 02:24:54;;;;;;;17.40;14.48;;;;;;;-2.91;100.00;97189.34;5071201;28;20127;-69
2023/02/04 02:27:21;;;;;;;15.40;12.73;;;;;;;-2.92;100.00;97183.38;5078977;28;20172;-69
2023/02/04 02:29:46;;;;;;;19.55;15.15;;;;;;;-2.92;100.00;97183.38;5070937;28;20028;-69
2023/02/04 02:32:13;;;;;;;18.75;15.55;;;;;;;-2.88;100.00;97184.16;5078563;28;20054;-69
2023/02/04 02:34:39;;;;;;;18.23;14.82;;;;;;;-2.91;100.00;97179.91;5077316;28;20024;-69
2023/02/04 02:37:07;;;;;;;17.55;14.50;;;;;;;-2.91;100.00;97179.91;5078047;28;20039;-63
2023/02/04 02:39:33;;;;;;;18.20;14.32;;;;;;;-2.94;100.00;97179.97;5078148;28;20743;-62
2023/02/04 02:41:59;;;;;;;19.48;14.95;;;;;;;-2.94;100.00;97174.81;5081336;28;20480;-68
2023/02/04 02:44:25;;;;;;;23.00;15.60;;;;;;;-2.95;100.00;97175.69;5075445;28;20127;-68
2023/02/04 02:46:52;;;;;;;21.75;15.63;;;;;;;-2.94;100.00;97179.09;5070456;28;20021;-69
2023/02/04 02:49:19;;;;;;;18.80;14.90;;;;;;;-2.96;100.00;97184.28;5079442;28;20044;-68
2023/02/04 02:51:45;;;;;;;19.25;15.43;;;;;;;-3.02;100.00;97181.78;5084420;28;20024;-68
2023/02/04 02:54:27;;;;;;;20.25;15.52;;;;;;;-3.06;100.00;97181.00;5083536;28;20031;-68
2023/02/04 02:56:54;;;;;;;19.30;14.77;;;;;;;-3.05;100.00;97177.53;5080397;28;20034;-62
2023/02/04 02:59:19;;;;;;;40.90;36.08;;;;;;;-3.02;100.00;97179.22;5083569;28;20150;-64
2023/02/04 03:01:50;;;;;;;22.05;18.27;;;;;;;-3.01;100.00;97175.75;5073101;28;20438;-64
2023/02/04 03:04:17;;;;;;;19.30;16.48;;;;;;;-3.09;100.00;97178.47;5088514;28;20028;-64
2023/02/04 03:06:43;;;;;;;20.00;15.32;;;;;;;-3.12;100.00;97180.22;5087286;28;20042;-64
2023/02/04 03:09:09;;;;;;;18.40;15.10;;;;;;;-3.12;100.00;97185.38;5090029;28;20545;-64
2023/02/04 03:11:34;;;;;;;19.88;15.05;;;;;;;-3.10;100.00;97189.63;5089886;28;20024;-64
2023/02/04 03:14:00;;;;;;;18.27;15.02;;;;;;;-3.08;100.00;97187.91;5086919;28;20031;-65
2023/02/04 03:16:28;;;;;;;16.13;13.63;;;;;;;-3.07;100.00;97186.16;5085257;28;20024;-67
2023/02/04 03:18:54;;;;;;;18.92;14.73;;;;;;;-3.10;100.00;97193.94;5080352;28;20120;-62
2023/02/04 03:21:20;;;;;;;14.73;13.10;;;;;;;-3.10;100.00;97187.03;5071315;28;20028;-62
2023/02/04 03:23:45;;;;;;;15.00;13.43;;;;;;;-3.09;100.00;97195.63;5058212;28;20053;-62
2023/02/04 03:26:11;;;;;;;19.08;14.00;;;;;;;-3.14;100.00;97193.13;5070073;28;20403;-62
2023/02/04 03:28:41;;;;;;;16.05;13.63;;;;;;;-3.14;100.00;97189.69;5085005;28;20495;-62
2023/02/04 03:31:06;;;;;;;15.75;12.13;;;;;;;-3.19;100.00;97193.19;5085417;28;20063;-62
2023/02/04 03:33:32;;;;;;;16.05;14.35;;;;;;;-3.19;100.00;97189.75;5080134;28;20520;-62
2023/02/04 03:35:58;;;;;;;18.35;14.70;;;;;;;-3.19;100.00;97184.59;5076901;28;20028;-61
2023/02/04 03:38:23;;;;;;;19.85;14.73;;;;;;;-3.22;100.00;97179.50;5077754;28;20517;-61
2023/02/04 03:40:49;;;;;;;17.88;14.13;;;;;;;-3.23;100.00;97186.34;5082068;28;20059;-61
2023/02/04 03:43:14;;;;;;;17.15;13.52;;;;;;;-3.27;100.00;97169.25;5074137;28;20506;-61
2023/02/04 03:45:39;;;;;;;24.45;17.25;;;;;;;-3.28;100.00;97174.44;5077850;28;20024;-61
2023/02/04 03:48:05;;;;;;;20.83;15.45;;;;;;;-3.27;100.00;97171.00;5085546;28;20086;-61
2023/02/04 03:50:30;;;;;;;33.65;23.85;;;;;;;-3.27;100.00;97171.00;5080637;28;20108;-61
2023/02/04 03:52:55;;;;;;;26.23;18.05;;;;;;;-3.27;100.00;97171.81;5076161;28;20032;-61
2023/02/04 03:55:21;;;;;;;58.97;35.30;;;;;;;-3.23;100.00;97172.63;5087965;28;20034;-69
2023/02/04 03:57:46;;;;;;;50.60;33.28;;;;;;;-3.25;100.00;97170.06;5087881;28;20047;-68
2023/02/04 04:00:12;;;;;;;58.78;32.55;;;;;;;-3.23;100.00;97167.50;5080860;28;20054;-68
2023/02/04 04:02:39;;;;;;;44.80;28.60;;;;;;;-3.25;100.00;97175.22;5089237;28;20046;-70
2023/02/04 04:05:06;;;;;;;51.85;32.03;;;;;;;-3.27;100.00;97169.25;5087490;28;20036;-69
2023/02/04 04:07:31;;;;;;;60.08;38.63;;;;;;;-3.33;100.00;97172.75;5075484;28;20029;-69
2023/02/04 04:09:57;;;;;;;60.72;37.72;;;;;;;-3.36;100.00;97175.38;5080504;28;20027;-70
2023/02/04 04:12:22;;;;;;;44.95;28.88;;;;;;;-3.35;100.00;97173.66;5080113;28;20021;-69
2023/02/04 04:14:47;;;;;;;36.45;23.70;;;;;;;-3.31;100.00;97167.59;5076259;28;20025;-61
2023/02/04 04:17:13;;;;;;;27.75;19.95;;;;;;;-3.29;100.00;97162.44;5086432;28;20025;-61
2023/02/04 04:19:38;;;;;;;37.60;26.15;;;;;;;-3.24;100.00;97161.47;5084603;28;20163;-61
2023/02/04 04:22:03;;;;;;;42.17;28.15;;;;;;;-3.17;100.00;97167.41;5083913;28;20029;-61
2023/02/04 04:24:29;;;;;;;33.63;26.08;;;;;;;-3.14;100.00;97161.34;5085610;28;20111;-61
2023/02/04 04:26:54;;;;;;;27.05;21.67;;;;;;;-3.10;100.00;97168.16;5084471;28;20053;-61
2023/02/04 04:29:19;;;;;;;26.73;21.08;;;;;;;-3.12;100.00;97169.91;5079945;28;20025;-61
2023/02/04 04:31:45;;;;;;;23.25;16.05;;;;;;;-3.21;100.00;97161.41;5086804;28;20035;-61
2023/02/04 04:34:10;;;;;;;15.90;13.27;;;;;;;-3.24;100.00;97169.19;5082140;28;20028;-65
2023/02/04 04:36:35;;;;;;;13.27;11.70;;;;;;;-3.20;100.00;97164.88;5085487;28;20117;-61
2023/02/04 04:39:01;;;;;;;14.23;12.52;;;;;;;-3.19;100.00;97174.28;5080857;28;20047;-62
2023/02/04 04:41:27;;;;;;;14.50;11.70;;;;;;;-3.19;100.00;97171.72;5074197;28;20025;-62
2023/02/04 04:43:52;;;;;;;17.90;14.52;;;;;;;-3.20;100.00;97172.59;5082281;28;20040;-61
2023/02/04 04:46:17;;;;;;;16.33;13.48;;;;;;;-3.21;100.00;97179.47;5082343;28;20032;-61
2023/02/04 04:48:43;;;;;;;16.08;13.25;;;;;;;-3.25;100.00;97175.22;5080117;28;20051;-61
2023/02/04 04:51:08;;;;;;;15.25;13.70;;;;;;;-3.25;100.00;97169.25;5081646;28;20039;-62
2023/02/04 04:53:33;;;;;;;15.90;14.00;;;;;;;-3.28;100.00;97171.84;5090013;28;20020;-67
2023/02/04 04:55:59;;;;;;;14.85;13.40;;;;;;;-3.33;100.00;97167.59;5082771;28;20032;-69
2023/02/04 04:58:24;;;;;;;15.10;13.60;;;;;;;-3.35;100.00;97165.94;5080987;28;20092;-69
2023/02/04 05:00:49;;;;;;;13.52;12.20;;;;;;;-3.34;100.00;97162.47;5079719;28;20107;-69
2023/02/04 05:03:15;;;;;;;13.80;11.65;;;;;;;-3.34;100.00;97160.75;5083370;28;20067;-69
2023/02/04 05:05:40;;;;;;;15.90;11.32;;;;;;;-3.36;100.00;97159.06;5084720;28;20035;-69
2023/02/04 05:08:11;;;;;;;13.80;12.43;;;;;;;-3.40;100.00;97162.56;5081991;28;20031;-69
2023/02/04 05:10:38;;;;;;;15.73;14.13;;;;;;;-3.41;100.00;97169.44;5080431;28;20541;-69
2023/02/04 05:13:04;;;;;;;19.30;16.52;;;;;;;-3.40;100.00;97171.13;5081988;28;20017;-67
2023/02/04 05:15:29;;;;;;;21.40;18.10;;;;;;;-3.34;100.00;97170.22;5075866;28;20032;-69
2023/02/04 05:17:55;;;;;;;21.15;16.77;;;;;;;-3.36;100.00;97166.81;5079808;28;20792;-69
2023/02/04 05:20:20;;;;;;;16.80;14.85;;;;;;;-3.38;100.00;97169.38;5084822;28;20035;-69
2023/02/04 05:22:45;;;;;;;16.23;13.82;;;;;;;-3.37;100.00;97171.09;5072395;28;20082;-70
2023/02/04 05:25:11;;;;;;;15.07;13.35;;;;;;;-3.33;100.00;97177.91;5076093;28;20414;-69
2023/02/04 05:27:36;;;;;;;16.52;14.70;;;;;;;-3.31;100.00;97171.03;5099540;28;20024;-70
2023/02/04 05:30:02;;;;;;;16.05;13.93;;;;;;;-3.31;100.00;97175.31;5082305;28;20077;-65
2023/02/04 05:32:28;;;;;;;14.68;13.13;;;;;;;-3.40;100.00;97178.03;5080285;28;20113;-62
2023/02/04 05:34:53;;;;;;;15.05;12.93;;;;;;;-3.45;100.00;97173.75;5056629;28;20032;-64
2023/02/04 05:37:19;;;;;;;15.23;13.63;;;;;;;-3.42;100.00;97185.75;5085321;28;20037;-64
2023/02/04 05:39:46;;;;;;;15.00;13.13;;;;;;;-3.46;100.00;97190.09;5086536;28;20482;-64
2023/02/04 05:42:11;;;;;;;17.85;13.13;;;;;;;-3.41;100.00;97182.31;5080357;28;20032;-65
2023/02/04 05:44:37;;;;;;;15.70;13.25;;;;;;;-3.37;100.00;97185.72;5074396;28;20047;-65
2023/02/04 05:47:02;;;;;;;18.75;14.10;;;;;;;-3.34;100.00;97180.50;5078479;28;20028;-65
2023/02/04 05:49:27;;;;;;;19.23;13.80;;;;;;;-3.38;100.00;97171.97;5075933;28;20490;-64
2023/02/04 05:51:53;;;;;;;17.98;14.15;;;;;;;-3.40;100.00;97165.16;5081673;28;20082;-68
2023/02/04 05:54:19;;;;;;;17.23;15.13;;;;;;;-3.40;100.00;97178.84;5081729;28;20016;-67
2023/02/04 05:56:46;;;;;;;32.15;28.73;;;;;;;-3.39;100.00;97182.31;5083360;28;20414;-67
2023/02/04 05:59:11;;;;;;;25.25;22.70;;;;;;;-3.39;100.00;97179.72;5079208;28;20127;-67
2023/02/04 06:01:37;;;;;;;24.77;16.38;;;;;;;-3.31;100.00;97185.63;5078414;28;20795;-67
2023/02/04 06:04:02;;;;;;;15.32;13.07;;;;;;;-3.36;100.00;97177.09;5082180;28;20023;-66
2023/02/04 06:06:28;;;;;;;18.33;13.55;;;;;;;-3.39;100.00;97183.13;5081762;28;20036;-67
2023/02/04 06:08:53;;;;;;;16.67;13.48;;;;;;;-3.42;100.00;97179.78;5085446;28;20056;-68
2023/02/04 06:11:19;;;;;;;15.73;12.82;;;;;;;-3.43;100.00;97183.19;5084778;28;20099;-70
2023/02/04 06:13:44;;;;;;;22.95;15.25;;;;;;;-3.47;100.00;97195.28;5080475;28;20028;-60
2023/02/04 06:16:10;;;;;;;19.20;13.23;;;;;;;-3.52;100.00;97189.34;5086652;28;20515;-60
2023/02/04 06:18:35;;;;;;;22.00;14.07;;;;;;;-3.53;100.00;97200.50;5085162;28;20437;-61
2023/02/04 06:21:03;;;;;;;25.85;17.27;;;;;;;-3.51;100.00;97191.88;5085194;28;20020;-61
2023/02/04 06:23:29;;;;;;;25.13;16.80;;;;;;;-3.47;100.00;97190.97;5069651;28;20035;-60
2023/02/04 06:25:54;;;;;;;31.23;19.45;;;;;;;-3.43;100.00;97190.91;5084072;28;20498;-61
2023/02/04 06:28:20;;;;;;;34.95;21.50;;;;;;;-3.38;100.00;97191.72;5068670;28;20034;-61
2023/02/04 06:30:45;;;;;;;53.83;31.95;;;;;;;-3.37;100.00;97186.53;5086454;28;20498;-68
2023/02/04 06:33:11;;;;;;;72.88;35.83;;;;;;;-3.36;100.00;97193.41;5084864;28;20504;-61
2023/02/04 06:35:36;;;;;;;69.22;34.20;;;;;;;-3.34;100.00;97193.38;5087459;28;20451;-61
2023/02/04 06:38:02;;;;;;;62.75;36.58;;;;;;;-3.39;100.00;97203.75;5091572;28;20050;-61
2023/02/04 06:40:27;;;;;;;59.58;33.60;;;;;;;-3.43;100.00;97206.38;5092017;28;20028;-61
2023/02/04 06:42:53;;;;;;;57.35;31.17;;;;;;;-3.37;100.00;97202.00;5092567;28;20152;-62
2023/02/04 06:45:18;;;;;;;53.95;31.08;;;;;;;-3.38;100.00;97209.75;5091692;28;20028;-61
2023/02/04 06:47:44;;;;;;;48.75;27.63;;;;;;;-3.41;100.00;97215.78;5092437;28;20020;-63
2023/02/04 06:50:11;;;;;;;55.40;28.40;;;;;;;-3.43;100.00;97221.81;5092009;28;20103;-67
2023/02/04 06:52:36;;;;;;;50.28;28.60;;;;;;;-3.34;100.00;97211.41;5092683;28;20098;-67
2023/02/04 06:55:01;;;;;;;47.58;29.15;;;;;;;-3.39;100.00;97208.06;5091989;28;20104;-67
2023/02/04 06:57:27;;;;;;;42.88;27.00;;;;;;;-3.43;100.00;97217.53;5091855;28;20028;-67
2023/02/04 06:59:52;;;;;;;45.13;26.63;;;;;;;-3.45;100.00;97224.44;5091904;28;20027;-67
2023/02/04 07:02:18;;;;;;;45.80;28.15;;;;;;;-3.46;100.00;97218.41;5097842;28;20134;-67
2023/02/04 07:04:43;;;;;;;40.83;26.35;;;;;;;-3.45;100.00;97217.53;5092271;28;20043;-67
2023/02/04 07:07:09;;;;;;;45.92;29.80;;;;;;;-3.40;100.00;97211.50;5073641;28;20050;-69
2023/02/04 07:09:36;;;;;;;43.75;27.42;;;;;;;-3.37;100.00;97216.63;5092240;28;20047;-61
2023/02/04 07:12:01;;;;;;;41.28;27.40;;;;;;;-3.31;100.00;97211.38;5091393;28;20024;-62
2023/02/04 07:14:27;;;;;;;42.92;28.55;;;;;;;-3.36;100.00;97219.16;5091803;28;20039;-61
2023/02/04 07:16:52;;;;;;;39.72;28.50;;;;;;;-3.36;100.00;97226.03;5091642;28;20036;-61
2023/02/04 07:19:17;;;;;;;43.42;30.98;;;;;;;-3.37;100.00;97232.06;5092423;28;20092;-61
2023/02/04 07:21:43;;;;;;;36.40;27.67;;;;;;;-3.33;100.00;97224.25;5092159;28;20470;-61
2023/02/04 07:24:08;;;;;;;27.88;21.42;;;;;;;-3.24;100.00;97227.63;5092429;28;20233;-61
2023/02/04 07:26:34;;;;;;;21.20;19.00;;;;;;;-3.13;100.00;97230.88;5092330;28;20023;-68
2023/02/04 07:28:59;;;;;;;23.90;20.02;;;;;;;-3.07;100.00;97232.53;5092033;28;20789;-66
2023/02/04 07:31:24;;;;;;;20.30;18.23;;;;;;;-3.06;100.00;97234.25;5092012;28;20047;-67
2023/02/04 07:33:50;;;;;;;24.92;18.60;;;;;;;-3.04;100.00;97245.38;5092143;28;20020;-66
2023/02/04 07:36:15;;;;;;;20.67;16.65;;;;;;;-3.00;100.00;97243.63;5092127;28;20020;-67
2023/02/04 07:38:40;;;;;;;23.55;17.15;;;;;;;-2.96;100.00;97246.16;5092426;28;20058;-67
2023/02/04 07:41:06;;;;;;;23.58;18.55;;;;;;;-2.93;100.00;97240.94;5092052;28;20024;-66
2023/02/04 07:43:31;;;;;;;27.20;18.33;;;;;;;-2.90;100.00;97238.31;5091810;28;20131;-67
2023/02/04 07:45:56;;;;;;;24.92;19.08;;;;;;;-2.85;100.00;97246.00;5089685;28;20162;-70
2023/02/04 07:48:22;;;;;;;22.23;17.33;;;;;;;-2.82;100.00;97242.50;5091617;28;20040;-64
2023/02/04 07:50:47;;;;;;;26.35;20.35;;;;;;;-2.81;100.00;97242.50;5091614;28;20020;-65
2023/02/04 07:53:13;;;;;;;20.75;18.00;;;;;;;-2.76;100.00;97247.59;5089850;28;20073;-64
2023/02/04 07:55:38;;;;;;;21.38;16.75;;;;;;;-2.73;100.00;97247.56;5085846;28;20028;-64
2023/02/04 07:58:04;;;;;;;18.40;15.68;;;;;;;-2.68;100.00;97247.47;5084843;28;20028;-64
2023/02/04 08:00:29;;;;;;;17.85;15.00;;;;;;;-2.68;100.00;97239.72;5091388;28;20020;-64
2023/02/04 08:02:54;;;;;;;16.67;14.75;;;;;;;-2.65;100.00;97243.13;5097624;28;20530;-63
2023/02/04 08:05:20;;;;;;;18.52;15.43;;;;;;;-2.64;100.00;97246.56;5091115;28;20035;-67
2023/02/04 08:07:45;;;;;;;17.77;15.65;;;;;;;-2.61;100.00;97244.78;5091727;28;20402;-69
2023/02/04 08:10:11;;;;;;;17.92;16.05;;;;;;;-2.56;100.00;97246.44;5091489;28;20024;-67
2023/02/04 08:12:36;;;;;;;18.30;16.27;;;;;;;-2.51;100.00;97249.81;5091222;28;20027;-68
2023/02/04 08:15:02;;;;;;;20.45;17.52;;;;;;;-2.49;100.00;97242.91;5091160;28;20016;-67
2023/02/04 08:17:28;;;;;;;20.50;17.50;;;;;;;-2.46;100.00;97237.69;5091221;28;20027;-69
2023/02/04 08:19:53;;;;;;;21.02;18.60;;;;;;;-2.42;100.00;97243.66;5091331;28;20050;-68
2023/02/04 08:22:19;;;;;;;22.15;18.33;;;;;;;-2.35;100.00;97245.25;5091286;28;20620;-69
2023/02/04 08:24:44;;;;;;;20.90;18.63;;;;;;;-2.26;100.00;97250.25;5091041;28;20023;-67
2023/02/04 08:27:09;;;;;;;25.08;19.40;;;;;;;-2.12;100.00;97247.44;5091247;28;20031;-68
2023/02/04 08:29:35;;;;;;;22.67;20.08;;;;;;;-2.04;100.00;97249.91;5091360;28;20428;-71
2023/02/04 08:32:00;;;;;;;22.75;19.98;;;;;;;-1.97;100.00;97246.38;5075871;28;20016;-70
2023/02/04 08:34:26;;;;;;;18.42;16.50;;;;;;;-1.81;100.00;97253.81;5082421;28;20038;-69
2023/02/04 08:36:51;;;;;;;22.27;18.13;;;;;;;-1.66;100.00;97252.69;5094436;28;20032;-69
2023/02/04 08:39:16;;;;;;;19.10;17.10;;;;;;;-1.48;100.00;97254.09;5101501;28;20099;-68
2023/02/04 08:41:42;;;;;;;19.38;17.25;;;;;;;-1.33;100.00;97256.38;5078504;28;20310;-68
2023/02/04 08:44:07;;;;;;;21.75;16.20;;;;;;;-1.16;100.00;97253.47;5072344;28;20126;-61
2023/02/04 08:46:32;;;;;;;18.58;16.73;;;;;;;-1.05;100.00;97249.78;5095924;28;20024;-60
2023/02/04 08:48:58;;;;;;;17.75;15.85;;;;;;;-0.88;100.00;97250.28;5094893;28;20478;-60
2023/02/04 08:51:23;;;;;;;17.30;15.02;;;;;;;-0.77;100.00;97241.47;5093433;28;20442;-60
2023/02/04 08:53:48;;;;;;;14.73;13.18;;;;;;;-0.68;100.00;97238.66;5095907;28;20418;-60
2023/02/04 08:56:16;;;;;;;13.95;12.30;;;;;;;-0.65;100.00;97242.91;5089569;28;20035;-60
2023/02/04 08:58:43;;;;;;;14.50;13.00;;;;;;;-0.61;100.00;97240.19;5089901;28;20035;-60
2023/02/04 09:01:10;;;;;;;16.90;12.23;;;;;;;-0.51;100.00;97238.25;5089219;28;20122;-69
2023/02/04 09:03:36;;;;;;;29.23;23.38;;;;;;;-0.10;100.00;97235.56;5077240;28;20078;-69
2023/02/04 09:06:01;;;;;;;44.15;35.83;;;;;;;0.34;100.00;97235.31;5082611;28;20466;-61
2023/02/04 09:08:26;;;;;;;23.77;19.23;;;;;;;0.79;100.00;97241.88;5089705;28;20111;-61
2023/02/04 09:10:52;;;;;;;20.30;17.02;;;;;;;1.19;100.00;97242.44;5089688;28;20024;-62
2023/02/04 09:13:17;;;;;;;15.63;14.05;;;;;;;1.57;100.00;97242.16;5089184;28;20058;-61
2023/02/04 09:15:43;;;;;;;17.33;15.50;;;;;;;1.92;100.00;97240.19;5088542;28;20061;-65
2023/02/04 09:18:16;;;;;;;14.75;12.90;;;;;;;2.24;100.00;97237.44;5085224;28;20029;-61
2023/02/04 09:20:45;;;;;;;13.50;10.48;;;;;;;2.53;97.65;97238.97;5085868;28;20035;-67
2023/02/04 09:23:11;;;;;;;11.75;9.50;;;;;;;2.72;92.72;97246.13;5089130;28;20035;-60
2023/02/04 09:25:41;;;;;;;8.93;7.80;;;;;;;2.77;90.54;97246.84;5089135;28;20529;-69
2023/02/04 09:28:10;;;;;;;10.82;8.70;;;;;;;2.89;90.36;97239.47;5089049;28;20106;-69
2023/02/04 09:30:39;;;;;;;9.25;8.25;;;;;;;3.02;90.03;97243.34;5088977;28;20032;-70
2023/02/04 09:33:05;;;;;;;11.52;10.18;;;;;;;3.18;88.36;97248.81;5088798;28;20539;-71
2023/02/04 09:35:30;;;;;;;11.07;9.25;;;;;;;3.33;87.86;97242.16;5089321;28;20035;-72
2023/02/04 09:37:55;;;;;;;12.23;9.10;;;;;;;3.35;86.32;97242.97;5088898;28;20074;-71
2023/02/04 09:40:21;;;;;;;12.15;10.35;;;;;;;3.08;86.54;97239.63;5089104;28;20442;-59
2023/02/04 09:42:49;;;;;;;15.18;11.45;;;;;;;3.31;87.21;97246.59;5088835;28;20044;-65
2023/02/04 09:45:17;;;;;;;15.38;13.40;;;;;;;3.15;86.04;97247.16;5089301;28;20135;-65
2023/02/04 09:47:42;;;;;;;24.33;20.73;;;;;;;2.88;85.82;97248.19;5088991;28;20032;-67
2023/02/04 09:50:17;;;;;;;15.93;14.25;;;;;;;2.57;86.66;97245.81;5088834;28;20020;-64
2023/02/04 09:52:43;;;;;;;14.30;11.80;;;;;;;2.32;87.97;97250.13;5088608;28;20070;-64
2023/02/04 09:55:16;;;;;;;11.23;10.10;;;;;;;2.71;87.84;97249.66;5088429;28;20031;-64
2023/02/04 09:57:41;;;;;;;8.60;7.72;;;;;;;2.88;85.81;97256.00;5088029;28;20024;-63
2023/02/04 10:00:28;;;;;;;10.77;9.50;;;;;;;3.14;86.52;97249.84;5088224;28;20054;-61
2023/02/04 10:02:58;;;;;;;10.25;8.15;;;;;;;3.57;84.87;97252.53;5094797;28;20036;-68
2023/02/04 10:05:29;;;;;;;11.40;9.02;;;;;;;4.06;82.27;97257.53;5088279;28;20782;-68
2023/02/04 10:07:55;;;;;;;9.73;8.73;;;;;;;4.21;79.73;97248.22;5070993;28;20111;-68
2023/02/04 10:10:24;;;;;;;9.98;8.98;;;;;;;4.22;79.76;97255.16;5094908;28;20114;-68
2023/02/04 10:12:51;;;;;;;11.90;9.13;;;;;;;4.35;79.39;97247.66;5077436;28;20015;-68
2023/02/04 10:15:19;;;;;;;9.00;7.90;;;;;;;4.41;78.22;97251.75;5095273;28;20046;-68
2023/02/04 10:18:06;;;;;;;10.15;8.85;;;;;;;4.45;76.43;97253.31;5095981;28;20024;-68
2023/02/04 10:20:32;;;;;;;8.80;7.93;;;;;;;4.65;76.58;97262.91;5095832;28;20035;-60
2023/02/04 10:22:57;;;;;;;10.00;8.07;;;;;;;4.83;77.06;97252.56;5095851;28;20054;-64
2023/02/04 10:25:24;;;;;;;9.00;8.20;;;;;;;5.07;75.37;97262.81;5096379;28;20040;-64
2023/02/04 10:27:57;;;;;;;11.63;8.02;;;;;;;5.23;72.60;97257.78;5096197;28;20032;-64
2023/02/04 10:30:34;;;;;;;11.07;7.95;;;;;;;5.36;73.66;97253.66;5096191;28;20401;-64
2023/02/04 10:33:10;;;;;;;11.98;8.07;;;;;;;5.24;72.42;97260.31;5082300;28;20024;-63
2023/02/04 10:35:44;;;;;;;7.68;6.82;;;;;;;5.36;72.36;97255.44;5096005;28;20493;-63
2023/02/04 10:38:09;;;;;;;9.55;7.20;;;;;;;5.60;72.83;97245.59;5096226;28;20031;-60
2023/02/04 10:40:35;;;;;;;10.93;7.13;;;;;;;5.71;71.28;97245.09;5095486;28;20039;-64
2023/02/04 10:43:14;;;;;;;8.65;7.40;;;;;;;5.85;70.77;97244.41;5096033;28;20047;-68
2023/02/04 10:45:44;;;;;;;8.90;7.35;;;;;;;6.09;70.50;97239.78;5095874;28;20077;-68
2023/02/04 10:48:17;;;;;;;7.93;7.03;;;;;;;6.19;68.31;97231.47;5096119;28;20090;-68
2023/02/04 10:50:44;;;;;;;8.40;7.60;;;;;;;6.23;68.64;97231.25;5089373;28;20512;-68
2023/02/04 10:55:58;;;;;;;9.07;7.78;;;;;;;6.65;67.63;97225.69;5085758;28;20039;-68
2023/02/04 10:58:27;;;;;;;7.85;7.07;;;;;;;6.73;66.19;97231.34;5095877;28;20020;-60
2023/02/04 11:00:53;;;;;;;9.82;6.80;;;;;;;6.73;65.64;97220.88;5095747;28;20030;-60
2023/02/04 11:03:22;;;;;;;8.82;6.47;;;;;;;6.96;65.07;97222.28;5101485;28;20028;-59
2023/02/04 11:05:48;;;;;;;7.85;7.10;;;;;;;7.22;65.87;97212.19;5094011;28;20088;-60
2023/02/04 11:08:29;;;;;;;8.48;6.20;;;;;;;7.55;64.22;97213.03;5095660;28;20104;-59
2023/02/04 11:11:01;;;;;;;6.30;5.70;;;;;;;7.76;63.19;97204.88;5092758;28;20035;-61
2023/02/04 11:13:39;;;;;;;8.90;5.80;;;;;;;8.02;62.28;97206.03;5095747;28;20027;-59